createdAt,value
2019-04-06T00:01:16.718Z,21.60
2019-04-06T00:03:42.919Z,27.07
2019-04-06T00:06:09.138Z,23.60
2019-04-06T00:08:35.274Z,23.17
2019-04-06T00:11:01.325Z,23.93
2019-04-06T00:13:27.412Z,24.33
2019-04-06T00:15:53.552Z,23.57
2019-04-06T00:18:19.614Z,23.87
2019-04-06T00:20:45.732Z,21.90
2019-04-06T00:23:11.943Z,22.10
2019-04-06T00:25:44.171Z,21.80
2019-04-06T00:28:06.080Z,21.90
2019-04-06T00:30:34.143Z,21.50
2019-04-06T00:33:04.871Z,22.83
2019-04-06T00:35:30.915Z,24.63
2019-04-06T00:37:57.418Z,23.23
2019-04-06T00:40:23.607Z,23.27
2019-04-06T00:42:49.752Z,23.77
2019-04-06T00:45:15.872Z,23.53
2019-04-06T00:47:41.961Z,22.67
2019-04-06T00:50:08.358Z,21.90
2019-04-06T00:52:34.615Z,21.80
2019-04-06T00:55:00.803Z,21.60
2019-04-06T00:57:27.025Z,25.90
2019-04-06T00:59:53.287Z,21.97
2019-04-06T01:02:19.455Z,22.63
2019-04-06T01:04:45.564Z,23.90
2019-04-06T01:07:11.755Z,23.47
2019-04-06T01:09:37.995Z,23.37
2019-04-06T01:12:04.047Z,23.83
2019-04-06T01:14:30.163Z,24.77
2019-04-06T01:16:56.351Z,24.60
2019-04-06T01:19:22.551Z,21.67
2019-04-06T01:21:48.687Z,22.00
2019-04-06T01:24:15.104Z,27.97
2019-04-06T01:26:41.387Z,21.57
2019-04-06T01:29:07.634Z,21.80
2019-04-06T01:31:33.754Z,21.17
2019-04-06T01:33:59.811Z,24.37
2019-04-06T01:36:25.867Z,23.10
2019-04-06T01:38:51.910Z,24.83
2019-04-06T01:41:18.027Z,24.37
2019-04-06T01:43:44.158Z,25.53
2019-04-06T01:46:10.267Z,23.20
2019-04-06T01:48:36.426Z,23.63
2019-04-06T01:51:02.611Z,21.33
2019-04-06T01:53:28.786Z,21.90
2019-04-06T01:55:54.927Z,22.03
2019-04-06T01:58:20.993Z,21.33
2019-04-06T02:01:03.854Z,21.83
2019-04-06T02:03:29.996Z,24.53
2019-04-06T02:05:56.111Z,24.23
2019-04-06T02:08:22.340Z,25.23
2019-04-06T02:10:48.479Z,22.77
2019-04-06T02:13:14.618Z,22.93
2019-04-06T02:15:40.763Z,22.73
2019-04-06T02:18:06.851Z,22.87
2019-04-06T02:20:32.967Z,22.83
2019-04-06T02:22:59.154Z,21.53
2019-04-06T02:25:25.316Z,22.37
2019-04-06T02:27:51.498Z,22.60
2019-04-06T02:30:19.566Z,23.20
2019-04-06T02:33:04.341Z,22.23
2019-04-06T02:35:38.427Z,24.70
2019-04-06T02:38:23.349Z,23.67
2019-04-06T02:40:51.409Z,24.67
2019-04-06T02:43:19.544Z,23.70
2019-04-06T02:45:45.771Z,22.67
2019-04-06T02:48:11.829Z,23.77
2019-04-06T02:50:37.882Z,25.27
2019-04-06T02:53:03.999Z,22.80
2019-04-06T02:55:30.227Z,22.23
2019-04-06T02:57:56.443Z,24.77
2019-04-06T03:00:22.529Z,21.40
2019-04-06T03:02:48.896Z,21.43
2019-04-06T03:05:15.101Z,23.20
2019-04-06T03:07:41.338Z,22.53
2019-04-06T03:10:08.170Z,21.60
2019-04-06T03:12:34.436Z,22.93
2019-04-06T03:15:00.778Z,22.47
2019-04-06T03:17:26.873Z,22.97
2019-04-06T03:19:52.992Z,21.93
2019-04-06T03:22:19.117Z,21.47
2019-04-06T03:24:45.251Z,23.00
2019-04-06T03:27:11.370Z,22.33
2019-04-06T03:29:37.607Z,21.07
2019-04-06T03:32:04.066Z,22.00
2019-04-06T03:34:30.201Z,24.43
2019-04-06T03:36:56.298Z,22.13
2019-04-06T03:39:22.525Z,22.80
2019-04-06T03:41:48.815Z,23.70
2019-04-06T03:44:14.873Z,23.37
2019-04-06T03:46:41.233Z,22.77
2019-04-06T03:49:07.399Z,22.40
2019-04-06T03:51:33.456Z,21.07
2019-04-06T03:53:59.539Z,21.20
2019-04-06T03:56:25.598Z,22.73
2019-04-06T03:58:52.355Z,21.00
2019-04-06T04:01:18.904Z,21.23
2019-04-06T04:03:44.953Z,25.33
2019-04-06T04:06:11.012Z,23.53
2019-04-06T04:08:37.068Z,22.73
2019-04-06T04:11:03.328Z,23.23
2019-04-06T04:13:29.378Z,23.33
2019-04-06T04:15:56.885Z,22.77
2019-04-06T04:18:23.420Z,22.97
2019-04-06T04:20:49.720Z,23.10
2019-04-06T04:23:15.948Z,21.53
2019-04-06T04:25:42.088Z,23.10
2019-04-06T04:28:08.399Z,21.73
2019-04-06T04:30:34.971Z,21.17
2019-04-06T04:33:01.210Z,21.73
2019-04-06T04:35:27.264Z,25.13
2019-04-06T04:37:53.408Z,22.40
2019-04-06T04:40:19.467Z,22.07
2019-04-06T04:42:45.702Z,21.47
2019-04-06T04:45:12.497Z,22.60
2019-04-06T04:47:38.547Z,22.97
2019-04-06T04:50:06.111Z,20.73
2019-04-06T04:52:32.156Z,21.63
2019-04-06T04:54:58.215Z,21.40
2019-04-06T04:57:24.268Z,21.07
2019-04-06T04:59:50.322Z,21.77
2019-04-06T05:02:16.384Z,21.67
2019-04-06T05:04:43.327Z,23.33
2019-04-06T05:07:09.387Z,22.90
2019-04-06T05:09:35.751Z,22.33
2019-04-06T05:12:01.893Z,23.23
2019-04-06T05:14:54.719Z,23.17
2019-04-06T05:17:20.780Z,22.67
2019-04-06T05:19:46.832Z,21.50
2019-04-06T05:22:12.878Z,21.37
2019-04-06T05:24:38.935Z,21.50
2019-04-06T05:27:05.088Z,23.13
2019-04-06T05:29:33.058Z,21.30
2019-04-06T05:31:59.247Z,21.63
2019-04-06T05:34:25.706Z,23.30
2019-04-06T05:36:51.845Z,22.27
2019-04-06T05:39:18.027Z,23.37
2019-04-06T05:41:44.075Z,23.37
2019-04-06T05:44:10.159Z,23.60
2019-04-06T05:46:36.220Z,23.63
2019-04-06T05:49:02.280Z,22.77
2019-04-06T05:51:28.423Z,21.43
2019-04-06T05:53:54.523Z,22.60
2019-04-06T05:56:20.587Z,23.90
2019-04-06T05:58:46.644Z,21.40
2019-04-06T06:01:12.708Z,21.77
2019-04-06T06:03:41.080Z,24.23
2019-04-06T06:06:06.746Z,23.17
2019-04-06T06:08:32.792Z,24.33
2019-04-06T06:10:58.871Z,24.10
2019-04-06T06:13:25.064Z,25.07
2019-04-06T06:15:51.190Z,25.03
2019-04-06T06:18:25.687Z,23.43
2019-04-06T06:20:45.228Z,22.87
2019-04-06T06:23:11.622Z,22.17
2019-04-06T06:25:37.671Z,22.80
2019-04-06T06:28:13.889Z,22.57
2019-04-06T06:30:31.691Z,22.10
2019-04-06T06:32:57.822Z,22.20
2019-04-06T06:35:23.913Z,26.17
2019-04-06T06:37:50.102Z,23.83
2019-04-06T06:40:16.180Z,23.87
2019-04-06T06:42:42.231Z,23.97
2019-04-06T06:45:08.845Z,24.23
2019-04-06T06:47:35.072Z,24.07
2019-04-06T06:50:02.021Z,21.83
2019-04-06T06:52:28.183Z,26.33
2019-04-06T06:54:54.255Z,21.70
2019-04-06T06:57:20.307Z,21.77
2019-04-06T06:59:46.363Z,19.73
2019-04-06T07:02:12.504Z,20.33
2019-04-06T07:04:38.667Z,23.37
2019-04-06T07:07:04.731Z,22.97
2019-04-06T07:09:30.910Z,23.87
2019-04-06T07:11:57.150Z,22.70
2019-04-06T07:14:23.315Z,23.23
2019-04-06T07:16:49.367Z,22.47
2019-04-06T07:19:15.799Z,21.60
2019-04-06T07:21:41.898Z,21.97
2019-04-06T07:24:07.960Z,22.70
2019-04-06T07:26:34.007Z,21.77
2019-04-06T07:29:00.128Z,21.67
2019-04-06T07:31:26.334Z,23.17
2019-04-06T07:33:52.394Z,25.43
2019-04-06T07:36:18.455Z,23.20
2019-04-06T07:38:44.507Z,24.37
2019-04-06T07:41:10.956Z,5.28
2019-04-06T07:43:37.383Z,22.37
2019-04-06T07:46:03.429Z,21.33
2019-04-06T07:48:29.898Z,10.10
2019-04-06T07:50:56.023Z,15.27
2019-04-06T07:53:22.455Z,14.33
2019-04-06T07:55:48.516Z,17.57
2019-04-06T07:58:14.805Z,16.53
2019-04-06T08:00:41.036Z,18.60
2019-04-06T08:03:07.188Z,16.53
2019-04-06T08:05:33.452Z,12.83
2019-04-06T08:08:00.258Z,14.93
2019-04-06T08:10:26.670Z,17.20
2019-04-06T08:12:53.114Z,18.13
2019-04-06T08:15:19.167Z,16.13
2019-04-06T08:17:45.219Z,14.47
2019-04-06T08:20:11.771Z,12.10
2019-04-06T08:22:37.918Z,12.93
2019-04-06T08:25:05.087Z,17.10
2019-04-06T08:27:31.510Z,17.53
2019-04-06T08:29:57.789Z,17.40
2019-04-06T08:32:23.922Z,17.50
2019-04-06T08:34:49.975Z,16.15
2019-04-06T08:37:16.106Z,19.83
2019-04-06T08:39:42.289Z,20.77
2019-04-06T08:42:08.423Z,19.17
2019-04-06T08:44:34.767Z,22.03
2019-04-06T08:47:00.928Z,19.80
2019-04-06T08:49:27.055Z,17.27
2019-04-06T08:51:53.100Z,18.00
2019-04-06T08:54:19.564Z,18.43
2019-04-06T08:56:45.983Z,18.50
2019-04-06T08:59:13.578Z,18.17
2019-04-06T09:01:40.209Z,17.77
2019-04-06T09:04:06.919Z,20.07
2019-04-06T09:06:33.091Z,19.77
2019-04-06T09:08:59.156Z,19.53
2019-04-06T09:11:25.215Z,19.27
2019-04-06T09:13:51.266Z,21.23
2019-04-06T09:16:17.700Z,19.30
2019-04-06T09:18:43.871Z,17.77
2019-04-06T09:21:10.539Z,16.87
2019-04-06T09:23:36.681Z,20.43
2019-04-06T09:26:02.935Z,16.97
2019-04-06T09:28:28.996Z,18.17
2019-04-06T09:30:55.083Z,17.23
2019-04-06T09:33:21.259Z,17.27
2019-04-06T09:35:47.315Z,18.07
2019-04-06T09:38:19.698Z,18.60
2019-04-06T09:40:47.528Z,22.37
2019-04-06T09:43:13.723Z,20.37
2019-04-06T09:45:42.117Z,20.23
2019-04-06T09:48:15.940Z,20.77
2019-04-06T09:50:46.528Z,18.17
2019-04-06T09:53:26.851Z,17.57
2019-04-06T09:55:54.802Z,16.93
2019-04-06T09:58:28.449Z,22.27
2019-04-06T10:00:56.505Z,17.43
2019-04-06T10:03:41.104Z,17.63
2019-04-06T10:06:25.704Z,18.73
2019-04-06T10:08:56.758Z,21.90
2019-04-06T10:11:33.731Z,17.67
2019-04-06T10:14:16.919Z,18.80
2019-04-06T10:16:44.915Z,18.97
2019-04-06T10:19:15.596Z,16.30
2019-04-06T10:21:43.667Z,18.63
2019-04-06T10:24:28.468Z,18.07
2019-04-06T10:26:56.527Z,16.60
2019-04-06T10:29:33.311Z,16.27
2019-04-06T10:32:01.295Z,14.77
2019-04-06T10:34:41.015Z,17.07
2019-04-06T10:37:18.044Z,18.83
2019-04-06T10:39:51.942Z,17.87
2019-04-06T10:42:19.979Z,19.33
2019-04-06T10:44:57.114Z,17.80
2019-04-06T10:47:30.982Z,20.20
2019-04-06T10:50:15.483Z,15.93
2019-04-06T10:52:43.598Z,17.20
2019-04-06T10:55:28.133Z,19.07
2019-04-06T10:58:08.327Z,14.97
2019-04-06T11:00:51.444Z,16.70
2019-04-06T11:03:22.260Z,16.33
2019-04-06T11:06:05.216Z,18.13
2019-04-06T11:08:36.006Z,20.30
2019-04-06T11:11:04.040Z,19.57
2019-04-06T11:13:32.004Z,19.93
2019-04-06T11:16:00.186Z,22.93
2019-04-06T11:18:44.911Z,19.93
2019-04-06T11:21:19.216Z,17.53
2019-04-06T11:23:49.841Z,20.23
2019-04-06T11:26:34.503Z,20.03
2019-04-06T11:29:11.523Z,25.87
2019-04-06T11:31:39.504Z,18.23
2019-04-06T11:34:25.006Z,21.30
2019-04-06T11:37:09.777Z,21.37
2019-04-06T11:39:46.727Z,20.07
2019-04-06T11:42:21.286Z,20.27
2019-04-06T11:44:49.397Z,18.75
2019-04-06T11:47:20.922Z,20.47
2019-04-06T11:50:06.967Z,18.17
2019-04-06T11:52:35.073Z,17.77
2019-04-06T11:55:19.926Z,20.35
2019-04-06T11:58:06.076Z,20.07
2019-04-06T12:00:39.811Z,19.00
2019-04-06T12:03:17.095Z,18.53
2019-04-06T12:05:47.923Z,20.10
2019-04-06T12:08:19.053Z,20.27
2019-04-06T12:10:50.781Z,20.07
2019-04-06T12:13:19.295Z,21.87
2019-04-06T12:15:47.255Z,20.90
2019-04-06T12:18:18.593Z,20.30
2019-04-06T12:21:03.824Z,23.20
2019-04-06T12:23:37.543Z,20.87
2019-04-06T12:26:18.203Z,18.87
2019-04-06T12:28:46.682Z,20.30
2019-04-06T12:31:23.659Z,19.10
2019-04-06T12:34:08.187Z,23.33
2019-04-06T12:36:53.356Z,20.47
2019-04-06T12:39:24.427Z,20.93
2019-04-06T12:41:52.786Z,19.70
2019-04-06T12:44:21.155Z,20.83
2019-04-06T12:46:49.658Z,21.17
2019-04-06T12:49:23.388Z,21.23
2019-04-06T12:52:06.254Z,21.03
2019-04-06T12:54:40.019Z,20.23
2019-04-06T12:57:08.083Z,19.87
2019-04-06T12:59:41.899Z,18.63
2019-04-06T13:02:18.719Z,20.30
2019-04-06T13:04:46.742Z,21.20
2019-04-06T13:07:24.645Z,20.60
2019-04-06T13:09:53.035Z,21.53
2019-04-06T13:12:35.914Z,21.20
2019-04-06T13:15:05.119Z,21.23
2019-04-06T13:17:39.508Z,20.53
2019-04-06T13:20:08.179Z,20.37
2019-04-06T13:22:54.925Z,20.87
2019-04-06T13:25:32.081Z,20.00
2019-04-06T13:28:03.083Z,23.03
2019-04-06T13:30:36.628Z,19.30
2019-04-06T13:33:10.270Z,19.47
2019-04-06T13:35:55.542Z,23.00
2019-04-06T13:38:35.996Z,22.70
2019-04-06T13:41:20.512Z,22.03
2019-04-06T13:43:49.078Z,23.07
2019-04-06T13:46:26.767Z,21.77
2019-04-06T13:49:07.216Z,20.77
2019-04-06T13:51:44.300Z,20.30
2019-04-06T13:54:14.830Z,20.03
2019-04-06T13:56:59.359Z,20.27
2019-04-06T13:59:27.411Z,21.03
2019-04-06T14:02:01.620Z,20.13
2019-04-06T14:04:29.871Z,20.43
2019-04-06T14:07:01.514Z,23.23
2019-04-06T14:09:35.747Z,22.03
2019-04-06T14:12:07.363Z,21.80
2019-04-06T14:14:47.955Z,22.20
2019-04-06T14:17:16.218Z,24.23
2019-04-06T14:19:59.429Z,24.87
2019-04-06T14:22:30.788Z,23.77
2019-04-06T14:25:17.054Z,20.70
2019-04-06T14:28:00.083Z,22.43
2019-04-06T14:30:31.091Z,22.70
2019-04-06T14:33:05.182Z,19.53
2019-04-06T14:35:35.887Z,24.47
2019-04-06T14:38:04.243Z,28.67
2019-04-06T14:40:41.362Z,27.23
2019-04-06T14:43:09.888Z,28.40
2019-04-06T14:45:44.422Z,24.70
2019-04-06T14:48:15.658Z,22.57
2019-04-06T14:50:59.379Z,20.73
2019-04-06T14:53:27.956Z,19.00
2019-04-06T14:56:13.352Z,20.00
2019-04-06T14:58:53.659Z,19.90
2019-04-06T15:01:36.990Z,20.37
2019-04-06T15:04:10.204Z,25.00
2019-04-06T15:06:41.604Z,22.80
2019-04-06T15:09:26.743Z,22.67
2019-04-06T15:12:11.770Z,20.97
2019-04-06T15:14:56.417Z,22.30
2019-04-06T15:17:24.762Z,23.17
2019-04-06T15:19:55.235Z,21.10
2019-04-06T15:22:26.163Z,22.50
2019-04-06T15:25:03.272Z,17.63
2019-04-06T15:27:31.228Z,20.47
2019-04-06T15:30:16.811Z,20.27
2019-04-06T15:32:59.990Z,20.43
2019-04-06T15:35:44.487Z,22.67
2019-04-06T15:38:28.335Z,22.40
2019-04-06T15:41:02.110Z,23.03
2019-04-06T15:43:46.948Z,22.80
2019-04-06T15:46:20.739Z,21.63
2019-04-06T15:49:00.528Z,19.93
2019-04-06T15:51:34.167Z,19.93
2019-04-06T15:54:18.875Z,20.37
2019-04-06T15:56:47.116Z,19.20
2019-04-06T15:59:20.874Z,18.97
2019-04-06T16:02:00.310Z,20.40
2019-04-06T16:04:24.017Z,21.90
2019-04-06T16:06:58.300Z,22.77
2019-04-06T16:09:26.835Z,20.63
2019-04-06T16:12:07.006Z,22.67
2019-04-06T16:14:38.327Z,22.37
2019-04-06T16:17:12.535Z,22.73
2019-04-06T16:19:40.860Z,20.20
2019-04-06T16:22:11.959Z,23.60
2019-04-06T16:24:48.882Z,22.50
2019-04-06T16:27:20.267Z,19.83
2019-04-06T16:29:48.313Z,19.80
2019-04-06T16:32:32.914Z,21.20
2019-04-06T16:34:58.382Z,19.27
2019-04-06T16:37:41.681Z,27.57
2019-04-06T16:40:10.513Z,20.30
2019-04-06T16:42:38.620Z,21.83
2019-04-06T16:45:15.902Z,21.12
2019-04-06T16:47:53.407Z,21.07
2019-04-06T16:50:21.367Z,20.13
2019-04-06T16:52:55.287Z,19.50
2019-04-06T16:55:23.431Z,20.03
2019-04-06T16:57:51.395Z,20.67
2019-04-06T17:00:29.224Z,21.17
2019-04-06T17:02:57.739Z,19.03
2019-04-06T17:05:29.151Z,23.27
2019-04-06T17:07:57.255Z,19.40
2019-04-06T17:10:30.753Z,21.43
2019-04-06T17:13:05.078Z,20.13
2019-04-06T17:15:36.276Z,19.90
2019-04-06T17:18:07.256Z,22.30
2019-04-06T17:20:38.987Z,18.80
2019-04-06T17:23:16.191Z,19.83
2019-04-06T17:25:56.094Z,18.37
2019-04-06T17:28:29.915Z,18.23
2019-04-06T17:31:13.596Z,18.67
2019-04-06T17:33:41.555Z,21.83
2019-04-06T17:36:24.495Z,20.80
2019-04-06T17:38:53.288Z,20.07
2019-04-06T17:41:21.311Z,21.13
2019-04-06T17:43:49.541Z,23.50
2019-04-06T17:46:23.355Z,20.50
2019-04-06T17:49:06.625Z,19.13
2019-04-06T17:51:43.562Z,18.40
2019-04-06T17:54:11.844Z,17.70
2019-04-06T17:56:56.363Z,18.47
2019-04-06T17:59:41.496Z,19.63
2019-04-06T18:02:26.035Z,18.57
2019-04-06T18:04:54.386Z,18.95
2019-04-06T18:07:22.455Z,18.73
2019-04-06T18:09:53.203Z,20.07
2019-04-06T18:12:21.370Z,19.70
2019-04-06T18:14:47.423Z,20.05
2019-04-06T18:17:13.877Z,19.17
2019-04-06T18:19:40.583Z,17.10
2019-04-06T18:22:06.636Z,18.50
2019-04-06T18:24:33.171Z,17.50
2019-04-06T18:26:59.243Z,18.77
2019-04-06T18:29:25.399Z,19.17
2019-04-06T18:31:53.871Z,18.83
2019-04-06T18:34:19.923Z,20.93
2019-04-06T18:37:04.278Z,20.93
2019-04-06T18:39:31.240Z,19.87
2019-04-06T18:41:57.735Z,21.07
2019-04-06T18:44:24.159Z,19.77
2019-04-06T18:46:50.595Z,21.57
2019-04-06T18:49:17.091Z,18.17
2019-04-06T18:51:43.364Z,17.40
2019-04-06T18:54:09.918Z,19.13
2019-04-06T18:56:36.131Z,17.57
2019-04-06T18:59:02.180Z,17.50
2019-04-06T19:01:28.261Z,17.80
2019-04-06T19:03:54.439Z,20.70
2019-04-06T19:06:20.493Z,21.70
2019-04-06T19:08:46.843Z,19.50
2019-04-06T19:11:16.388Z,18.55
2019-04-06T19:13:42.979Z,22.00
2019-04-06T19:16:09.444Z,20.30
2019-04-06T19:18:35.615Z,18.37
2019-04-06T19:21:01.743Z,18.20
2019-04-06T19:23:28.399Z,18.20
2019-04-06T19:25:54.548Z,17.73
2019-04-06T19:28:20.959Z,18.00
2019-04-06T19:30:47.175Z,17.00
2019-04-06T19:33:22.724Z,18.83
2019-04-06T19:35:41.515Z,18.80
2019-04-06T19:38:07.668Z,21.20
2019-04-06T19:40:33.846Z,17.47
2019-04-06T19:43:00.047Z,19.43
2019-04-06T19:45:26.263Z,20.07
2019-04-06T19:47:52.857Z,18.53
2019-04-06T19:50:19.158Z,18.90
2019-04-06T19:52:45.813Z,22.37
2019-04-06T19:55:12.703Z,18.70
2019-04-06T19:57:39.299Z,17.97
2019-04-06T20:00:06.790Z,18.13
2019-04-06T20:02:33.386Z,19.50
2019-04-06T20:04:59.989Z,18.52
2019-04-06T20:07:26.039Z,19.73
2019-04-06T20:09:52.175Z,18.97
2019-04-06T20:12:18.743Z,20.57
2019-04-06T20:14:45.594Z,19.90
2019-04-06T20:17:12.202Z,18.27
2019-04-06T20:19:38.784Z,17.53
2019-04-06T20:22:04.835Z,17.60
2019-04-06T20:24:30.921Z,19.90
2019-04-06T20:26:56.979Z,16.63
2019-04-06T20:29:23.725Z,18.70
2019-04-06T20:31:49.943Z,17.87
2019-04-06T20:34:16.467Z,19.60
2019-04-06T20:36:43.069Z,19.30
2019-04-06T20:39:09.250Z,19.53
2019-04-06T20:41:35.821Z,21.37
2019-04-06T20:44:01.986Z,20.50
2019-04-06T20:46:28.579Z,19.73
2019-04-06T20:48:54.783Z,18.17
2019-04-06T20:51:21.432Z,17.90
2019-04-06T20:53:47.792Z,19.03
2019-04-06T20:56:14.518Z,18.73
2019-04-06T20:58:41.273Z,17.93
2019-04-06T21:01:07.926Z,17.17
2019-04-06T21:03:34.651Z,20.03
2019-04-06T21:06:01.836Z,18.70
2019-04-06T21:08:28.586Z,21.33
2019-04-06T21:10:55.072Z,20.23
2019-04-06T21:13:21.505Z,19.63
2019-04-06T21:15:47.631Z,17.63
2019-04-06T21:18:14.593Z,20.00
2019-04-06T21:20:41.212Z,17.83
2019-04-06T21:23:07.764Z,17.50
2019-04-06T21:25:34.363Z,17.30
2019-04-06T21:28:00.960Z,18.43
2019-04-06T21:30:27.768Z,18.05
2019-04-06T21:32:54.110Z,19.10
2019-04-06T21:35:20.308Z,17.83
2019-04-06T21:37:46.731Z,18.80
2019-04-06T21:40:13.175Z,19.07
2019-04-06T21:42:39.292Z,19.63
2019-04-06T21:45:06.339Z,26.05
2019-04-06T21:47:33.037Z,18.13
2019-04-06T21:49:59.156Z,18.85
2019-04-06T21:52:25.282Z,18.37
2019-04-06T21:54:51.327Z,16.35
2019-04-06T21:57:17.431Z,18.60
2019-04-06T21:59:43.916Z,19.47
2019-04-06T22:02:10.063Z,18.80
2019-04-06T22:04:36.523Z,21.30
2019-04-06T22:07:04.245Z,22.03
2019-04-06T22:09:30.671Z,21.37
2019-04-06T22:11:57.099Z,20.70
2019-04-06T22:14:23.895Z,20.83
2019-04-06T22:16:50.607Z,19.87
2019-04-06T22:19:17.013Z,17.87
2019-04-06T22:21:43.207Z,18.03
2019-04-06T22:24:09.551Z,19.03
2019-04-06T22:26:36.296Z,18.00
2019-04-06T22:29:03.107Z,18.43
2019-04-06T22:31:29.175Z,17.77
2019-04-06T22:33:55.631Z,18.70
2019-04-06T22:36:22.267Z,19.67
2019-04-06T22:38:49.213Z,21.43
2019-04-06T22:41:15.572Z,21.00
2019-04-06T22:43:41.735Z,21.30
2019-04-06T22:46:07.904Z,20.37
2019-04-06T22:48:34.652Z,19.13
2019-04-06T22:51:00.880Z,18.23
2019-04-06T22:53:27.183Z,18.43
2019-04-06T22:55:53.239Z,17.67
2019-04-06T22:58:19.729Z,19.67
2019-04-06T23:00:48.531Z,17.67
2019-04-06T23:03:33.457Z,19.30
2019-04-06T23:06:01.539Z,19.80
2019-04-06T23:08:27.783Z,20.23
2019-04-06T23:10:54.315Z,20.47
2019-04-06T23:13:20.377Z,20.33
2019-04-06T23:15:47.929Z,20.03
2019-04-06T23:18:14.399Z,20.70
2019-04-06T23:20:40.443Z,18.07
2019-04-06T23:23:07.435Z,18.87
2019-04-06T23:25:34.894Z,18.43
2019-04-06T23:28:01.038Z,18.20
2019-04-06T23:30:27.183Z,18.00
2019-04-06T23:32:53.513Z,19.63
2019-04-06T23:35:20.064Z,21.50
2019-04-06T23:37:46.115Z,20.93
2019-04-06T23:40:12.353Z,20.93
2019-04-06T23:42:38.811Z,19.80
2019-04-06T23:45:05.980Z,20.00
2019-04-06T23:47:32.619Z,20.23
2019-04-06T23:49:58.783Z,18.37
2019-04-06T23:52:25.356Z,18.90
2019-04-06T23:54:52.050Z,17.30
2019-04-06T23:57:18.701Z,19.17
2019-04-06T23:59:45.295Z,19.10
